Aviation Digital Data Service (ADDS)

Output produced by METARs form (1056 UTC 17 June 2019)
found at http://www.aviationweather.gov/metar/data/
 
METAR text: EHRD 171025Z AUTO 19011KT 160V250 9999 FEW040 SCT047 24/14 Q1019 NOSIG
Conditions at: EHRD (ROTTERDAM AIRPOR, NL) observed 1025 UTC 17 June 2019
Temperature: 24.0°C (75°F)
Dewpoint: 14.0°C (57°F) [RH = 54%]
Pressure (altimeter): 30.09 inches Hg (1019.0 mb)
Winds: from the S (190 degrees) at 13 MPH (11 knots; 5.7 m/s)
Visibility: 6 or more miles (10+ km)
Ceiling: at least 12,000 feet AGL
Clouds: few clouds at 4000 feet AGL
scattered clouds at 4700 feet AGL
Weather: no significant weather observed at this time

METAR text: EHRD 170955Z AUTO 18011KT 140V240 9999 FEW038 23/14 Q1019 NOSIG
Conditions at: EHRD (ROTTERDAM AIRPOR, NL) observed 0955 UTC 17 June 2019
Temperature: 23.0°C (73°F)
Dewpoint: 14.0°C (57°F) [RH = 57%]
Pressure (altimeter): 30.09 inches Hg (1019.0 mb)
Winds: from the S (180 degrees) at 13 MPH (11 knots; 5.7 m/s)
Visibility: 6 or more miles (10+ km)
Ceiling: at least 12,000 feet AGL
Clouds: few clouds at 3800 feet AGL
Weather: no significant weather observed at this time

METAR text: EHRD 170925Z AUTO 19011KT 160V240 9999 NCD 23/14 Q1019 NOSIG
Conditions at: EHRD (ROTTERDAM AIRPOR, NL) observed 0925 UTC 17 June 2019
Temperature: 23.0°C (73°F)
Dewpoint: 14.0°C (57°F) [RH = 57%]
Pressure (altimeter): 30.09 inches Hg (1019.0 mb)
Winds: from the S (190 degrees) at 13 MPH (11 knots; 5.7 m/s)
Visibility: 6 or more miles (10+ km)
Ceiling: at least 12,000 feet AGL
Clouds: sky clear below 12,000 feet AGL
Weather: no significant weather observed at this time

METAR text: EHRD 170855Z AUTO 16011KT 130V190 9999 NCD 22/14 Q1020 NOSIG
Conditions at: EHRD (ROTTERDAM AIRPOR, NL) observed 0855 UTC 17 June 2019
Temperature: 22.0°C (72°F)
Dewpoint: 14.0°C (57°F) [RH = 60%]
Pressure (altimeter): 30.12 inches Hg (1020.0 mb)
Winds: from the SSE (160 degrees) at 13 MPH (11 knots; 5.7 m/s)
Visibility: 6 or more miles (10+ km)
Ceiling: at least 12,000 feet AGL
Clouds: sky clear below 12,000 feet AGL
Weather: no significant weather observed at this time

METAR text: EHRD 170825Z AUTO 17009KT 130V200 9999 NCD 22/15 Q1020 NOSIG
Conditions at: EHRD (ROTTERDAM AIRPOR, NL) observed 0825 UTC 17 June 2019
Temperature: 22.0°C (72°F)
Dewpoint: 15.0°C (59°F) [RH = 65%]
Pressure (altimeter): 30.12 inches Hg (1020.0 mb)
Winds: from the S (170 degrees) at 10 MPH (9 knots; 4.6 m/s)
Visibility: 6 or more miles (10+ km)
Ceiling: at least 12,000 feet AGL
Clouds: sky clear below 12,000 feet AGL
Weather: no significant weather observed at this time

METAR text: EHRD 170755Z AUTO 16010KT 130V200 9999 NCD 21/14 Q1020 NOSIG
Conditions at: EHRD (ROTTERDAM AIRPOR, NL) observed 0755 UTC 17 June 2019
Temperature: 21.0°C (70°F)
Dewpoint: 14.0°C (57°F) [RH = 64%]
Pressure (altimeter): 30.12 inches Hg (1020.0 mb)
Winds: from the SSE (160 degrees) at 12 MPH (10 knots; 5.1 m/s)
Visibility: 6 or more miles (10+ km)
Ceiling: at least 12,000 feet AGL
Clouds: sky clear below 12,000 feet AGL
Weather: no significant weather observed at this time

METAR text: EHRD 170725Z AUTO 16009KT 9999 FEW048 20/14 Q1020 NOSIG
Conditions at: EHRD (ROTTERDAM AIRPOR, NL) observed 0725 UTC 17 June 2019
Temperature: 20.0°C (68°F)
Dewpoint: 14.0°C (57°F) [RH = 68%]
Pressure (altimeter): 30.12 inches Hg (1020.0 mb)
Winds: from the SSE (160 degrees) at 10 MPH (9 knots; 4.6 m/s)
Visibility: 6 or more miles (10+ km)
Ceiling: at least 12,000 feet AGL
Clouds: few clouds at 4800 feet AGL
Weather: no significant weather observed at this time

METAR text: EHRD 170655Z AUTO 17008KT 120V200 9999 SCT044 OVC049 19/14 Q1020 NOSIG
Conditions at: EHRD (ROTTERDAM AIRPOR, NL) observed 0655 UTC 17 June 2019
Temperature: 19.0°C (66°F)
Dewpoint: 14.0°C (57°F) [RH = 73%]
Pressure (altimeter): 30.12 inches Hg (1020.0 mb)
Winds: from the S (170 degrees) at 9 MPH (8 knots; 4.1 m/s)
Visibility: 6 or more miles (10+ km)
Ceiling: 4900 feet AGL
Clouds: scattered clouds at 4400 feet AGL
overcast cloud deck at 4900 feet AGL
Weather: no significant weather observed at this time

METAR text: EHRD 170625Z AUTO 16005KT 100V200 9999 BKN043 OVC047 19/14 Q1020 NOSIG
Conditions at: EHRD (ROTTERDAM AIRPOR, NL) observed 0625 UTC 17 June 2019
Temperature: 19.0°C (66°F)
Dewpoint: 14.0°C (57°F) [RH = 73%]
Pressure (altimeter): 30.12 inches Hg (1020.0 mb)
Winds: from the SSE (160 degrees) at 6 MPH (5 knots; 2.6 m/s)
Visibility: 6 or more miles (10+ km)
Ceiling: 4300 feet AGL
Clouds: broken clouds at 4300 feet AGL
overcast cloud deck at 4700 feet AGL
Weather: no significant weather observed at this time

METAR text: EHRD 170555Z AUTO 16004KT 100V200 9999 FEW039 18/14 Q1020 NOSIG
Conditions at: EHRD (ROTTERDAM AIRPOR, NL) observed 0555 UTC 17 June 2019
Temperature: 18.0°C (64°F)
Dewpoint: 14.0°C (57°F) [RH = 77%]
Pressure (altimeter): 30.12 inches Hg (1020.0 mb)
Winds: from the SSE (160 degrees) at 5 MPH (4 knots; 2.1 m/s)
Visibility: 6 or more miles (10+ km)
Ceiling: at least 12,000 feet AGL
Clouds: few clouds at 3900 feet AGL
Weather: no significant weather observed at this time

METAR text: EHRD 170525Z AUTO 15004KT 050V200 9999 SCT041 17/14 Q1020 NOSIG
Conditions at: EHRD (ROTTERDAM AIRPOR, NL) observed 0525 UTC 17 June 2019
Temperature: 17.0°C (63°F)
Dewpoint: 14.0°C (57°F) [RH = 82%]
Pressure (altimeter): 30.12 inches Hg (1020.0 mb)
Winds: from the SSE (150 degrees) at 5 MPH (4 knots; 2.1 m/s)
Visibility: 6 or more miles (10+ km)
Ceiling: at least 12,000 feet AGL
Clouds: scattered clouds at 4100 feet AGL
Weather: no significant weather observed at this time

METAR text: EHRD 170455Z AUTO VRB02KT 9999 NCD 16/13 Q1020 NOSIG
Conditions at: EHRD (ROTTERDAM AIRPOR, NL) observed 0455 UTC 17 June 2019
Temperature: 16.0°C (61°F)
Dewpoint: 13.0°C (55°F) [RH = 82%]
Pressure (altimeter): 30.12 inches Hg (1020.0 mb)
Winds: variable direction winds at 2 MPH (2 knots; 1.0 m/s)
Visibility: 6 or more miles (10+ km)
Ceiling: at least 12,000 feet AGL
Clouds: sky clear below 12,000 feet AGL
Weather: no significant weather observed at this time

METAR text: EHRD 170425Z AUTO 10001KT 9999 NCD 13/12 Q1020 NOSIG
Conditions at: EHRD (ROTTERDAM AIRPOR, NL) observed 0425 UTC 17 June 2019
Temperature: 13.0°C (55°F)
Dewpoint: 12.0°C (54°F) [RH = 94%]
Pressure (altimeter): 30.12 inches Hg (1020.0 mb)
Winds: from the E (100 degrees) at 1 MPH (1 knots; 0.5 m/s)
Visibility: 6 or more miles (10+ km)
Ceiling: at least 12,000 feet AGL
Clouds: sky clear below 12,000 feet AGL
Weather: no significant weather observed at this time

METAR text: EHRD 170355Z AUTO VRB01KT 9999 NCD 12/12 Q1020 NOSIG
Conditions at: EHRD (ROTTERDAM AIRPOR, NL) observed 0355 UTC 17 June 2019
Temperature: 12.0°C (54°F)
Dewpoint: 12.0°C (54°F) [RH = 100%]
Pressure (altimeter): 30.12 inches Hg (1020.0 mb)
Winds: variable direction winds at 1 MPH (1 knots; 0.5 m/s)
Visibility: 6 or more miles (10+ km)
Ceiling: at least 12,000 feet AGL
Clouds: sky clear below 12,000 feet AGL
Weather: no significant weather observed at this time

METAR text: EHRD 170325Z AUTO 13002KT 9999 NCD 12/12 Q1020 NOSIG
Conditions at: EHRD (ROTTERDAM AIRPOR, NL) observed 0325 UTC 17 June 2019
Temperature: 12.0°C (54°F)
Dewpoint: 12.0°C (54°F) [RH = 100%]
Pressure (altimeter): 30.12 inches Hg (1020.0 mb)
Winds: from the SE (130 degrees) at 2 MPH (2 knots; 1.0 m/s)
Visibility: 6 or more miles (10+ km)
Ceiling: at least 12,000 feet AGL
Clouds: sky clear below 12,000 feet AGL
Weather: no significant weather observed at this time

METAR text: EHRD 170255Z AUTO 14002KT 9999 NSC 12/12 Q1020 NOSIG
Conditions at: EHRD (ROTTERDAM AIRPOR, NL) observed 0255 UTC 17 June 2019
Temperature: 12.0°C (54°F)
Dewpoint: 12.0°C (54°F) [RH = 100%]
Pressure (altimeter): 30.12 inches Hg (1020.0 mb)
Winds: from the SE (140 degrees) at 2 MPH (2 knots; 1.0 m/s)
Visibility: 6 or more miles (10+ km)
Ceiling: at least 12,000 feet AGL
Clouds: sky clear below 12,000 feet AGL
Weather: no significant weather observed at this time

METAR text: EHRD 170225Z AUTO 15003KT 9999 NCD 12/12 Q1020 NOSIG
Conditions at: EHRD (ROTTERDAM AIRPOR, NL) observed 0225 UTC 17 June 2019
Temperature: 12.0°C (54°F)
Dewpoint: 12.0°C (54°F) [RH = 100%]
Pressure (altimeter): 30.12 inches Hg (1020.0 mb)
Winds: from the SSE (150 degrees) at 3 MPH (3 knots; 1.5 m/s)
Visibility: 6 or more miles (10+ km)
Ceiling: at least 12,000 feet AGL
Clouds: sky clear below 12,000 feet AGL
Weather: no significant weather observed at this time

METAR text: EHRD 170155Z AUTO 14002KT 9999 NCD 12/12 Q1020 NOSIG
Conditions at: EHRD (ROTTERDAM AIRPOR, NL) observed 0155 UTC 17 June 2019
Temperature: 12.0°C (54°F)
Dewpoint: 12.0°C (54°F) [RH = 100%]
Pressure (altimeter): 30.12 inches Hg (1020.0 mb)
Winds: from the SE (140 degrees) at 2 MPH (2 knots; 1.0 m/s)
Visibility: 6 or more miles (10+ km)
Ceiling: at least 12,000 feet AGL
Clouds: sky clear below 12,000 feet AGL
Weather: no significant weather observed at this time

METAR text: EHRD 170125Z AUTO 13002KT 9999 NCD 12/11 Q1020 NOSIG
Conditions at: EHRD (ROTTERDAM AIRPOR, NL) observed 0125 UTC 17 June 2019
Temperature: 12.0°C (54°F)
Dewpoint: 11.0°C (52°F) [RH = 94%]
Pressure (altimeter): 30.12 inches Hg (1020.0 mb)
Winds: from the SE (130 degrees) at 2 MPH (2 knots; 1.0 m/s)
Visibility: 6 or more miles (10+ km)
Ceiling: at least 12,000 feet AGL
Clouds: sky clear below 12,000 feet AGL
Weather: no significant weather observed at this time

METAR text: EHRD 170055Z AUTO 15002KT 9999 NCD 13/12 Q1020 NOSIG
Conditions at: EHRD (ROTTERDAM AIRPOR, NL) observed 0055 UTC 17 June 2019
Temperature: 13.0°C (55°F)
Dewpoint: 12.0°C (54°F) [RH = 94%]
Pressure (altimeter): 30.12 inches Hg (1020.0 mb)
Winds: from the SSE (150 degrees) at 2 MPH (2 knots; 1.0 m/s)
Visibility: 6 or more miles (10+ km)
Ceiling: at least 12,000 feet AGL
Clouds: sky clear below 12,000 feet AGL
Weather: no significant weather observed at this time

METAR text: EHRD 170025Z AUTO 15002KT 9999 NCD 13/11 Q1020 NOSIG
Conditions at: EHRD (ROTTERDAM AIRPOR, NL) observed 0025 UTC 17 June 2019
Temperature: 13.0°C (55°F)
Dewpoint: 11.0°C (52°F) [RH = 88%]
Pressure (altimeter): 30.12 inches Hg (1020.0 mb)
Winds: from the SSE (150 degrees) at 2 MPH (2 knots; 1.0 m/s)
Visibility: 6 or more miles (10+ km)
Ceiling: at least 12,000 feet AGL
Clouds: sky clear below 12,000 feet AGL
Weather: no significant weather observed at this time

METAR text: EHRD 162355Z AUTO VRB02KT 9999 NCD 14/12 Q1020 NOSIG
Conditions at: EHRD (ROTTERDAM AIRPOR, NL) observed 2355 UTC 16 June 2019
Temperature: 14.0°C (57°F)
Dewpoint: 12.0°C (54°F) [RH = 88%]
Pressure (altimeter): 30.12 inches Hg (1020.0 mb)
Winds: variable direction winds at 2 MPH (2 knots; 1.0 m/s)
Visibility: 6 or more miles (10+ km)
Ceiling: at least 12,000 feet AGL
Clouds: sky clear below 12,000 feet AGL
Weather: no significant weather observed at this time

METAR text: EHRD 162325Z AUTO 19004KT 9999 NCD 14/11 Q1020 NOSIG
Conditions at: EHRD (ROTTERDAM AIRPOR, NL) observed 2325 UTC 16 June 2019
Temperature: 14.0°C (57°F)
Dewpoint: 11.0°C (52°F) [RH = 82%]
Pressure (altimeter): 30.12 inches Hg (1020.0 mb)
Winds: from the S (190 degrees) at 5 MPH (4 knots; 2.1 m/s)
Visibility: 6 or more miles (10+ km)
Ceiling: at least 12,000 feet AGL
Clouds: sky clear below 12,000 feet AGL
Weather: no significant weather observed at this time

METAR text: EHRD 162255Z AUTO 20004KT 9999 NCD 15/11 Q1020 NOSIG
Conditions at: EHRD (ROTTERDAM AIRPOR, NL) observed 2255 UTC 16 June 2019
Temperature: 15.0°C (59°F)
Dewpoint: 11.0°C (52°F) [RH = 77%]
Pressure (altimeter): 30.12 inches Hg (1020.0 mb)
Winds: from the SSW (200 degrees) at 5 MPH (4 knots; 2.1 m/s)
Visibility: 6 or more miles (10+ km)
Ceiling: at least 12,000 feet AGL
Clouds: sky clear below 12,000 feet AGL
Weather: no significant weather observed at this time

METAR text: EHRD 162225Z AUTO 21006KT 9999 NCD 16/11 Q1020 NOSIG
Conditions at: EHRD (ROTTERDAM AIRPOR, NL) observed 2225 UTC 16 June 2019
Temperature: 16.0°C (61°F)
Dewpoint: 11.0°C (52°F) [RH = 72%]
Pressure (altimeter): 30.12 inches Hg (1020.0 mb)
Winds: from the SSW (210 degrees) at 7 MPH (6 knots; 3.1 m/s)
Visibility: 6 or more miles (10+ km)
Ceiling: at least 12,000 feet AGL
Clouds: sky clear below 12,000 feet AGL
Weather: no significant weather observed at this time

METAR text: EHRD 162155Z AUTO 21006KT 9999 NCD 16/11 Q1020 NOSIG
Conditions at: EHRD (ROTTERDAM AIRPOR, NL) observed 2155 UTC 16 June 2019
Temperature: 16.0°C (61°F)
Dewpoint: 11.0°C (52°F) [RH = 72%]
Pressure (altimeter): 30.12 inches Hg (1020.0 mb)
Winds: from the SSW (210 degrees) at 7 MPH (6 knots; 3.1 m/s)
Visibility: 6 or more miles (10+ km)
Ceiling: at least 12,000 feet AGL
Clouds: sky clear below 12,000 feet AGL
Weather: no significant weather observed at this time

METAR text: EHRD 162125Z AUTO 23006KT 9999 NCD 14/11 Q1020 NOSIG
Conditions at: EHRD (ROTTERDAM AIRPOR, NL) observed 2125 UTC 16 June 2019
Temperature: 14.0°C (57°F)
Dewpoint: 11.0°C (52°F) [RH = 82%]
Pressure (altimeter): 30.12 inches Hg (1020.0 mb)
Winds: from the SW (230 degrees) at 7 MPH (6 knots; 3.1 m/s)
Visibility: 6 or more miles (10+ km)
Ceiling: at least 12,000 feet AGL
Clouds: sky clear below 12,000 feet AGL
Weather: no significant weather observed at this time

METAR text: EHRD 162055Z AUTO 22007KT 150V250 9999 SCT040 SCT046 16/11 Q1020 NOSIG
Conditions at: EHRD (ROTTERDAM AIRPOR, NL) observed 2055 UTC 16 June 2019
Temperature: 16.0°C (61°F)
Dewpoint: 11.0°C (52°F) [RH = 72%]
Pressure (altimeter): 30.12 inches Hg (1020.0 mb)
Winds: from the SW (220 degrees) at 8 MPH (7 knots; 3.6 m/s)
Visibility: 6 or more miles (10+ km)
Ceiling: at least 12,000 feet AGL
Clouds: scattered clouds at 4000 feet AGL
scattered clouds at 4600 feet AGL
Weather: no significant weather observed at this time

METAR text: EHRD 162025Z AUTO 22006KT 190V250 9999 SCT040 BKN044 17/12 Q1020 NOSIG
Conditions at: EHRD (ROTTERDAM AIRPOR, NL) observed 2025 UTC 16 June 2019
Temperature: 17.0°C (63°F)
Dewpoint: 12.0°C (54°F) [RH = 72%]
Pressure (altimeter): 30.12 inches Hg (1020.0 mb)
Winds: from the SW (220 degrees) at 7 MPH (6 knots; 3.1 m/s)
Visibility: 6 or more miles (10+ km)
Ceiling: 4400 feet AGL
Clouds: scattered clouds at 4000 feet AGL
broken clouds at 4400 feet AGL
Weather: no significant weather observed at this time

METAR text: EHRD 161955Z AUTO 25006KT 210V280 9999 NCD 17/12 Q1020 NOSIG
Conditions at: EHRD (ROTTERDAM AIRPOR, NL) observed 1955 UTC 16 June 2019
Temperature: 17.0°C (63°F)
Dewpoint: 12.0°C (54°F) [RH = 72%]
Pressure (altimeter): 30.12 inches Hg (1020.0 mb)
Winds: from the WSW (250 degrees) at 7 MPH (6 knots; 3.1 m/s)
Visibility: 6 or more miles (10+ km)
Ceiling: at least 12,000 feet AGL
Clouds: sky clear below 12,000 feet AGL
Weather: no significant weather observed at this time

METAR text: EHRD 161925Z AUTO 25008KT 220V280 9999 NCD 18/12 Q1020 NOSIG
Conditions at: EHRD (ROTTERDAM AIRPOR, NL) observed 1925 UTC 16 June 2019
Temperature: 18.0°C (64°F)
Dewpoint: 12.0°C (54°F) [RH = 68%]
Pressure (altimeter): 30.12 inches Hg (1020.0 mb)
Winds: from the WSW (250 degrees) at 9 MPH (8 knots; 4.1 m/s)
Visibility: 6 or more miles (10+ km)
Ceiling: at least 12,000 feet AGL
Clouds: sky clear below 12,000 feet AGL
Weather: no significant weather observed at this time

METAR text: EHRD 161855Z AUTO 26008KT 230V290 9999 SCT047 18/13 Q1020 NOSIG
Conditions at: EHRD (ROTTERDAM AIRPOR, NL) observed 1855 UTC 16 June 2019
Temperature: 18.0°C (64°F)
Dewpoint: 13.0°C (55°F) [RH = 73%]
Pressure (altimeter): 30.12 inches Hg (1020.0 mb)
Winds: from the W (260 degrees) at 9 MPH (8 knots; 4.1 m/s)
Visibility: 6 or more miles (10+ km)
Ceiling: at least 12,000 feet AGL
Clouds: scattered clouds at 4700 feet AGL
Weather: no significant weather observed at this time

METAR text: EHRD 161825Z AUTO 27010KT 240V310 9999 NSC 18/13 Q1020 NOSIG
Conditions at: EHRD (ROTTERDAM AIRPOR, NL) observed 1825 UTC 16 June 2019
Temperature: 18.0°C (64°F)
Dewpoint: 13.0°C (55°F) [RH = 73%]
Pressure (altimeter): 30.12 inches Hg (1020.0 mb)
Winds: from the W (270 degrees) at 12 MPH (10 knots; 5.1 m/s)
Visibility: 6 or more miles (10+ km)
Ceiling: at least 12,000 feet AGL
Clouds: sky clear below 12,000 feet AGL
Weather: no significant weather observed at this time

METAR text: EHRD 161755Z AUTO 26008KT 230V300 9999 SCT033 BKN037 20/14 Q1020 NOSIG
Conditions at: EHRD (ROTTERDAM AIRPOR, NL) observed 1755 UTC 16 June 2019
Temperature: 20.0°C (68°F)
Dewpoint: 14.0°C (57°F) [RH = 68%]
Pressure (altimeter): 30.12 inches Hg (1020.0 mb)
Winds: from the W (260 degrees) at 9 MPH (8 knots; 4.1 m/s)
Visibility: 6 or more miles (10+ km)
Ceiling: 3700 feet AGL
Clouds: scattered clouds at 3300 feet AGL
broken clouds at 3700 feet AGL
Weather: no significant weather observed at this time

METAR text: EHRD 161725Z AUTO 23009KT 9999 FEW041 20/13 Q1019 NOSIG
Conditions at: EHRD (ROTTERDAM AIRPOR, NL) observed 1725 UTC 16 June 2019
Temperature: 20.0°C (68°F)
Dewpoint: 13.0°C (55°F) [RH = 64%]
Pressure (altimeter): 30.09 inches Hg (1019.0 mb)
Winds: from the SW (230 degrees) at 10 MPH (9 knots; 4.6 m/s)
Visibility: 6 or more miles (10+ km)
Ceiling: at least 12,000 feet AGL
Clouds: few clouds at 4100 feet AGL
Weather: no significant weather observed at this time

METAR text: EHRD 161655Z AUTO 23008KT 170V290 9999 SCT034 SCT041 21/13 Q1019 NOSIG
Conditions at: EHRD (ROTTERDAM AIRPOR, NL) observed 1655 UTC 16 June 2019
Temperature: 21.0°C (70°F)
Dewpoint: 13.0°C (55°F) [RH = 60%]
Pressure (altimeter): 30.09 inches Hg (1019.0 mb)
Winds: from the SW (230 degrees) at 9 MPH (8 knots; 4.1 m/s)
Visibility: 6 or more miles (10+ km)
Ceiling: at least 12,000 feet AGL
Clouds: scattered clouds at 3400 feet AGL
scattered clouds at 4100 feet AGL
Weather: no significant weather observed at this time

METAR text: EHRD 161625Z AUTO 23007KT 170V270 9999 SCT034 BKN039 BKN043 21/13 Q1019 NOSIG
Conditions at: EHRD (ROTTERDAM AIRPOR, NL) observed 1625 UTC 16 June 2019
Temperature: 21.0°C (70°F)
Dewpoint: 13.0°C (55°F) [RH = 60%]
Pressure (altimeter): 30.09 inches Hg (1019.0 mb)
Winds: from the SW (230 degrees) at 8 MPH (7 knots; 3.6 m/s)
Visibility: 6 or more miles (10+ km)
Ceiling: 3900 feet AGL
Clouds: scattered clouds at 3400 feet AGL
broken clouds at 3900 feet AGL
broken clouds at 4300 feet AGL
Weather: no significant weather observed at this time

METAR text: EHRD 161555Z AUTO 26006KT 230V340 9999 BKN035 BKN042 BKN049 21/13 Q1019 NOSIG
Conditions at: EHRD (ROTTERDAM AIRPOR, NL) observed 1555 UTC 16 June 2019
Temperature: 21.0°C (70°F)
Dewpoint: 13.0°C (55°F) [RH = 60%]
Pressure (altimeter): 30.09 inches Hg (1019.0 mb)
Winds: from the W (260 degrees) at 7 MPH (6 knots; 3.1 m/s)
Visibility: 6 or more miles (10+ km)
Ceiling: 3500 feet AGL
Clouds: broken clouds at 3500 feet AGL
broken clouds at 4200 feet AGL
broken clouds at 4900 feet AGL
Weather: no significant weather observed at this time

METAR text: EHRD 161525Z AUTO 22008KT 190V270 9999 FEW035 SCT041 BKN047 21/13 Q1019 NOSIG
Conditions at: EHRD (ROTTERDAM AIRPOR, NL) observed 1525 UTC 16 June 2019
Temperature: 21.0°C (70°F)
Dewpoint: 13.0°C (55°F) [RH = 60%]
Pressure (altimeter): 30.09 inches Hg (1019.0 mb)
Winds: from the SW (220 degrees) at 9 MPH (8 knots; 4.1 m/s)
Visibility: 6 or more miles (10+ km)
Ceiling: 4700 feet AGL
Clouds: few clouds at 3500 feet AGL
scattered clouds at 4100 feet AGL
broken clouds at 4700 feet AGL
Weather: no significant weather observed at this time

METAR text: EHRD 161455Z AUTO 23008KT 190V300 9999 SCT033 BKN038 BKN045 22/13 Q1019 NOSIG
Conditions at: EHRD (ROTTERDAM AIRPOR, NL) observed 1455 UTC 16 June 2019
Temperature: 22.0°C (72°F)
Dewpoint: 13.0°C (55°F) [RH = 57%]
Pressure (altimeter): 30.09 inches Hg (1019.0 mb)
Winds: from the SW (230 degrees) at 9 MPH (8 knots; 4.1 m/s)
Visibility: 6 or more miles (10+ km)
Ceiling: 3800 feet AGL
Clouds: scattered clouds at 3300 feet AGL
broken clouds at 3800 feet AGL
broken clouds at 4500 feet AGL
Weather: no significant weather observed at this time

METAR text: EHRD 161425Z AUTO 22006KT 140V300 9999 FEW036 SCT042 20/13 Q1019 NOSIG
Conditions at: EHRD (ROTTERDAM AIRPOR, NL) observed 1425 UTC 16 June 2019
Temperature: 20.0°C (68°F)
Dewpoint: 13.0°C (55°F) [RH = 64%]
Pressure (altimeter): 30.09 inches Hg (1019.0 mb)
Winds: from the SW (220 degrees) at 7 MPH (6 knots; 3.1 m/s)
Visibility: 6 or more miles (10+ km)
Ceiling: at least 12,000 feet AGL
Clouds: few clouds at 3600 feet AGL
scattered clouds at 4200 feet AGL
Weather: no significant weather observed at this time

METAR text: EHRD 161355Z AUTO 26007KT 210V300 9999 BKN031 BKN039 20/13 Q1019 NOSIG
Conditions at: EHRD (ROTTERDAM AIRPOR, NL) observed 1355 UTC 16 June 2019
Temperature: 20.0°C (68°F)
Dewpoint: 13.0°C (55°F) [RH = 64%]
Pressure (altimeter): 30.09 inches Hg (1019.0 mb)
Winds: from the W (260 degrees) at 8 MPH (7 knots; 3.6 m/s)
Visibility: 6 or more miles (10+ km)
Ceiling: 3100 feet AGL
Clouds: broken clouds at 3100 feet AGL
broken clouds at 3900 feet AGL
Weather: no significant weather observed at this time

METAR text: EHRD 161325Z AUTO 21009KT 170V270 9999 BKN034 19/12 Q1019 NOSIG
Conditions at: EHRD (ROTTERDAM AIRPOR, NL) observed 1325 UTC 16 June 2019
Temperature: 19.0°C (66°F)
Dewpoint: 12.0°C (54°F) [RH = 64%]
Pressure (altimeter): 30.09 inches Hg (1019.0 mb)
Winds: from the SSW (210 degrees) at 10 MPH (9 knots; 4.6 m/s)
Visibility: 6 or more miles (10+ km)
Ceiling: 3400 feet AGL
Clouds: broken clouds at 3400 feet AGL
Weather: no significant weather observed at this time

METAR text: EHRD 161255Z AUTO 22009KT 180V260 9999 SCT035 SCT042 19/12 Q1019 NOSIG
Conditions at: EHRD (ROTTERDAM AIRPOR, NL) observed 1255 UTC 16 June 2019
Temperature: 19.0°C (66°F)
Dewpoint: 12.0°C (54°F) [RH = 64%]
Pressure (altimeter): 30.09 inches Hg (1019.0 mb)
Winds: from the SW (220 degrees) at 10 MPH (9 knots; 4.6 m/s)
Visibility: 6 or more miles (10+ km)
Ceiling: at least 12,000 feet AGL
Clouds: scattered clouds at 3500 feet AGL
scattered clouds at 4200 feet AGL
Weather: no significant weather observed at this time

METAR text: EHRD 161225Z AUTO 24011KT 200V280 9999 SCT030 BKN036 OVC040 18/11 Q1019 NOSIG
Conditions at: EHRD (ROTTERDAM AIRPOR, NL) observed 1225 UTC 16 June 2019
Temperature: 18.0°C (64°F)
Dewpoint: 11.0°C (52°F) [RH = 64%]
Pressure (altimeter): 30.09 inches Hg (1019.0 mb)
Winds: from the WSW (240 degrees) at 13 MPH (11 knots; 5.7 m/s)
Visibility: 6 or more miles (10+ km)
Ceiling: 3600 feet AGL
Clouds: scattered clouds at 3000 feet AGL
broken clouds at 3600 feet AGL
overcast cloud deck at 4000 feet AGL
Weather: no significant weather observed at this time

METAR text: EHRD 161155Z AUTO 23009KT 190V260 9999 BKN033 OVC038 19/12 Q1019 NOSIG
Conditions at: EHRD (ROTTERDAM AIRPOR, NL) observed 1155 UTC 16 June 2019
Temperature: 19.0°C (66°F)
Dewpoint: 12.0°C (54°F) [RH = 64%]
Pressure (altimeter): 30.09 inches Hg (1019.0 mb)
Winds: from the SW (230 degrees) at 10 MPH (9 knots; 4.6 m/s)
Visibility: 6 or more miles (10+ km)
Ceiling: 3300 feet AGL
Clouds: broken clouds at 3300 feet AGL
overcast cloud deck at 3800 feet AGL
Weather: no significant weather observed at this time

METAR text: EHRD 161125Z AUTO 25010KT 210V290 9999 SCT028 SCT048 19/11 Q1019 NOSIG
Conditions at: EHRD (ROTTERDAM AIRPOR, NL) observed 1125 UTC 16 June 2019
Temperature: 19.0°C (66°F)
Dewpoint: 11.0°C (52°F) [RH = 60%]
Pressure (altimeter): 30.09 inches Hg (1019.0 mb)
Winds: from the WSW (250 degrees) at 12 MPH (10 knots; 5.1 m/s)
Visibility: 6 or more miles (10+ km)
Ceiling: at least 12,000 feet AGL
Clouds: scattered clouds at 2800 feet AGL
scattered clouds at 4800 feet AGL
Weather: no significant weather observed at this time

METAR text: EHRD 161055Z AUTO 25012KT 210V290 9999 FEW026 SCT030 18/12 Q1019 NOSIG
Conditions at: EHRD (ROTTERDAM AIRPOR, NL) observed 1055 UTC 16 June 2019
Temperature: 18.0°C (64°F)
Dewpoint: 12.0°C (54°F) [RH = 68%]
Pressure (altimeter): 30.09 inches Hg (1019.0 mb)
Winds: from the WSW (250 degrees) at 14 MPH (12 knots; 6.2 m/s)
Visibility: 6 or more miles (10+ km)
Ceiling: at least 12,000 feet AGL
Clouds: few clouds at 2600 feet AGL
scattered clouds at 3000 feet AGL
Weather: no significant weather observed at this time

METAR text: EHRD 161025Z AUTO 23011KT 190V290 9999 SCT025 SCT030 BKN040 18/12 Q1019 NOSIG
Conditions at: EHRD (ROTTERDAM AIRPOR, NL) observed 1025 UTC 16 June 2019
Temperature: 18.0°C (64°F)
Dewpoint: 12.0°C (54°F) [RH = 68%]
Pressure (altimeter): 30.09 inches Hg (1019.0 mb)
Winds: from the SW (230 degrees) at 13 MPH (11 knots; 5.7 m/s)
Visibility: 6 or more miles (10+ km)
Ceiling: 4000 feet AGL
Clouds: scattered clouds at 2500 feet AGL
scattered clouds at 3000 feet AGL
broken clouds at 4000 feet AGL
Weather: no significant weather observed at this time

METAR text: EHRD 160955Z AUTO 23011KT 200V260 9999 FEW032 SCT039 BKN043 17/13 Q1019 NOSIG
Conditions at: EHRD (ROTTERDAM AIRPOR, NL) observed 0955 UTC 16 June 2019
Temperature: 17.0°C (63°F)
Dewpoint: 13.0°C (55°F) [RH = 77%]
Pressure (altimeter): 30.09 inches Hg (1019.0 mb)
Winds: from the SW (230 degrees) at 13 MPH (11 knots; 5.7 m/s)
Visibility: 6 or more miles (10+ km)
Ceiling: 4300 feet AGL
Clouds: few clouds at 3200 feet AGL
scattered clouds at 3900 feet AGL
broken clouds at 4300 feet AGL
Weather: no significant weather observed at this time

METAR text: EHRD 160925Z AUTO 24010KT 210V270 9999 BKN016 OVC020 18/14 Q1019 NOSIG
Conditions at: EHRD (ROTTERDAM AIRPOR, NL) observed 0925 UTC 16 June 2019
Temperature: 18.0°C (64°F)
Dewpoint: 14.0°C (57°F) [RH = 77%]
Pressure (altimeter): 30.09 inches Hg (1019.0 mb)
Winds: from the WSW (240 degrees) at 12 MPH (10 knots; 5.1 m/s)
Visibility: 6 or more miles (10+ km)
Ceiling: 1600 feet AGL
Clouds: broken clouds at 1600 feet AGL
overcast cloud deck at 2000 feet AGL
Weather: no significant weather observed at this time

METAR text: EHRD 160855Z AUTO 23011KT 9999 FEW017 SCT022 BKN025 16/13 Q1018 NOSIG
Conditions at: EHRD (ROTTERDAM AIRPOR, NL) observed 0855 UTC 16 June 2019
Temperature: 16.0°C (61°F)
Dewpoint: 13.0°C (55°F) [RH = 82%]
Pressure (altimeter): 30.06 inches Hg (1018.0 mb)
Winds: from the SW (230 degrees) at 13 MPH (11 knots; 5.7 m/s)
Visibility: 6 or more miles (10+ km)
Ceiling: 2500 feet AGL
Clouds: few clouds at 1700 feet AGL
scattered clouds at 2200 feet AGL
broken clouds at 2500 feet AGL
Weather: no significant weather observed at this time

METAR text: EHRD 160825Z AUTO 23009KT 9999 BKN017 BKN024 BKN039 17/13 Q1018 NOSIG
Conditions at: EHRD (ROTTERDAM AIRPOR, NL) observed 0825 UTC 16 June 2019
Temperature: 17.0°C (63°F)
Dewpoint: 13.0°C (55°F) [RH = 77%]
Pressure (altimeter): 30.06 inches Hg (1018.0 mb)
Winds: from the SW (230 degrees) at 10 MPH (9 knots; 4.6 m/s)
Visibility: 6 or more miles (10+ km)
Ceiling: 1700 feet AGL
Clouds: broken clouds at 1700 feet AGL
broken clouds at 2400 feet AGL
broken clouds at 3900 feet AGL
Weather: no significant weather observed at this time

METAR text: EHRD 160755Z AUTO 23009KT 9999 FEW017 SCT024 OVC036 17/13 Q1018 NOSIG
Conditions at: EHRD (ROTTERDAM AIRPOR, NL) observed 0755 UTC 16 June 2019
Temperature: 17.0°C (63°F)
Dewpoint: 13.0°C (55°F) [RH = 77%]
Pressure (altimeter): 30.06 inches Hg (1018.0 mb)
Winds: from the SW (230 degrees) at 10 MPH (9 knots; 4.6 m/s)
Visibility: 6 or more miles (10+ km)
Ceiling: 3600 feet AGL
Clouds: few clouds at 1700 feet AGL
scattered clouds at 2400 feet AGL
overcast cloud deck at 3600 feet AGL
Weather: no significant weather observed at this time

METAR text: EHRD 160725Z AUTO 22009KT 190V250 9999 FEW025 BKN037 BKN042 17/13 Q1018 NOSIG
Conditions at: EHRD (ROTTERDAM AIRPOR, NL) observed 0725 UTC 16 June 2019
Temperature: 17.0°C (63°F)
Dewpoint: 13.0°C (55°F) [RH = 77%]
Pressure (altimeter): 30.06 inches Hg (1018.0 mb)
Winds: from the SW (220 degrees) at 10 MPH (9 knots; 4.6 m/s)
Visibility: 6 or more miles (10+ km)
Ceiling: 3700 feet AGL
Clouds: few clouds at 2500 feet AGL
broken clouds at 3700 feet AGL
broken clouds at 4200 feet AGL
Weather: no significant weather observed at this time

METAR text: EHRD 160655Z AUTO 23011KT 200V260 9999 FEW019 16/13 Q1018 NOSIG
Conditions at: EHRD (ROTTERDAM AIRPOR, NL) observed 0655 UTC 16 June 2019
Temperature: 16.0°C (61°F)
Dewpoint: 13.0°C (55°F) [RH = 82%]
Pressure (altimeter): 30.06 inches Hg (1018.0 mb)
Winds: from the SW (230 degrees) at 13 MPH (11 knots; 5.7 m/s)
Visibility: 6 or more miles (10+ km)
Ceiling: at least 12,000 feet AGL
Clouds: few clouds at 1900 feet AGL
Weather: no significant weather observed at this time

METAR text: EHRD 160625Z AUTO 22009KT 190V260 9999 NSC 17/13 Q1017 NOSIG
Conditions at: EHRD (ROTTERDAM AIRPOR, NL) observed 0625 UTC 16 June 2019
Temperature: 17.0°C (63°F)
Dewpoint: 13.0°C (55°F) [RH = 77%]
Pressure (altimeter): 30.03 inches Hg (1017.0 mb)
Winds: from the SW (220 degrees) at 10 MPH (9 knots; 4.6 m/s)
Visibility: 6 or more miles (10+ km)
Ceiling: at least 12,000 feet AGL
Clouds: sky clear below 12,000 feet AGL
Weather: no significant weather observed at this time

METAR text: EHRD 160555Z AUTO 23009KT 200V260 9999 NSC 15/12 Q1017 NOSIG
Conditions at: EHRD (ROTTERDAM AIRPOR, NL) observed 0555 UTC 16 June 2019
Temperature: 15.0°C (59°F)
Dewpoint: 12.0°C (54°F) [RH = 82%]
Pressure (altimeter): 30.03 inches Hg (1017.0 mb)
Winds: from the SW (230 degrees) at 10 MPH (9 knots; 4.6 m/s)
Visibility: 6 or more miles (10+ km)
Ceiling: at least 12,000 feet AGL
Clouds: sky clear below 12,000 feet AGL
Weather: no significant weather observed at this time

METAR text: EHRD 160525Z AUTO 23009KT 200V270 9999 NSC 16/12 Q1017 NOSIG
Conditions at: EHRD (ROTTERDAM AIRPOR, NL) observed 0525 UTC 16 June 2019
Temperature: 16.0°C (61°F)
Dewpoint: 12.0°C (54°F) [RH = 77%]
Pressure (altimeter): 30.03 inches Hg (1017.0 mb)
Winds: from the SW (230 degrees) at 10 MPH (9 knots; 4.6 m/s)
Visibility: 6 or more miles (10+ km)
Ceiling: at least 12,000 feet AGL
Clouds: sky clear below 12,000 feet AGL
Weather: no significant weather observed at this time

METAR text: EHRD 160455Z AUTO 23011KT 9999 NSC 16/12 Q1017 NOSIG
Conditions at: EHRD (ROTTERDAM AIRPOR, NL) observed 0455 UTC 16 June 2019
Temperature: 16.0°C (61°F)
Dewpoint: 12.0°C (54°F) [RH = 77%]
Pressure (altimeter): 30.03 inches Hg (1017.0 mb)
Winds: from the SW (230 degrees) at 13 MPH (11 knots; 5.7 m/s)
Visibility: 6 or more miles (10+ km)
Ceiling: at least 12,000 feet AGL
Clouds: sky clear below 12,000 feet AGL
Weather: no significant weather observed at this time

METAR text: EHRD 160425Z AUTO 20005KT 150V230 9999 NSC 15/12 Q1017 NOSIG
Conditions at: EHRD (ROTTERDAM AIRPOR, NL) observed 0425 UTC 16 June 2019
Temperature: 15.0°C (59°F)
Dewpoint: 12.0°C (54°F) [RH = 82%]
Pressure (altimeter): 30.03 inches Hg (1017.0 mb)
Winds: from the SSW (200 degrees) at 6 MPH (5 knots; 2.6 m/s)
Visibility: 6 or more miles (10+ km)
Ceiling: at least 12,000 feet AGL
Clouds: sky clear below 12,000 feet AGL
Weather: no significant weather observed at this time

METAR text: EHRD 160355Z AUTO 22007KT 9999 NCD 15/12 Q1017 NOSIG
Conditions at: EHRD (ROTTERDAM AIRPOR, NL) observed 0355 UTC 16 June 2019
Temperature: 15.0°C (59°F)
Dewpoint: 12.0°C (54°F) [RH = 82%]
Pressure (altimeter): 30.03 inches Hg (1017.0 mb)
Winds: from the SW (220 degrees) at 8 MPH (7 knots; 3.6 m/s)
Visibility: 6 or more miles (10+ km)
Ceiling: at least 12,000 feet AGL
Clouds: sky clear below 12,000 feet AGL
Weather: no significant weather observed at this time

METAR text: EHRD 160325Z AUTO 21006KT 180V250 9999 NSC 14/12 Q1017 NOSIG
Conditions at: EHRD (ROTTERDAM AIRPOR, NL) observed 0325 UTC 16 June 2019
Temperature: 14.0°C (57°F)
Dewpoint: 12.0°C (54°F) [RH = 88%]
Pressure (altimeter): 30.03 inches Hg (1017.0 mb)
Winds: from the SSW (210 degrees) at 7 MPH (6 knots; 3.1 m/s)
Visibility: 6 or more miles (10+ km)
Ceiling: at least 12,000 feet AGL
Clouds: sky clear below 12,000 feet AGL
Weather: no significant weather observed at this time

METAR text: EHRD 160255Z AUTO 20008KT 9999 OVC042 16/12 Q1016 NOSIG
Conditions at: EHRD (ROTTERDAM AIRPOR, NL) observed 0255 UTC 16 June 2019
Temperature: 16.0°C (61°F)
Dewpoint: 12.0°C (54°F) [RH = 77%]
Pressure (altimeter): 30.00 inches Hg (1016.0 mb)
Winds: from the SSW (200 degrees) at 9 MPH (8 knots; 4.1 m/s)
Visibility: 6 or more miles (10+ km)
Ceiling: 4200 feet AGL
Clouds: overcast cloud deck at 4200 feet AGL
Weather: no significant weather observed at this time

METAR text: EHRD 160225Z AUTO 19007KT 9999 SCT042 15/12 Q1016 NOSIG
Conditions at: EHRD (ROTTERDAM AIRPOR, NL) observed 0225 UTC 16 June 2019
Temperature: 15.0°C (59°F)
Dewpoint: 12.0°C (54°F) [RH = 82%]
Pressure (altimeter): 30.00 inches Hg (1016.0 mb)
Winds: from the S (190 degrees) at 8 MPH (7 knots; 3.6 m/s)
Visibility: 6 or more miles (10+ km)
Ceiling: at least 12,000 feet AGL
Clouds: scattered clouds at 4200 feet AGL
Weather: no significant weather observed at this time

METAR text: EHRD 160155Z AUTO 16007KT 140V200 9999 OVC043 15/12 Q1016 NOSIG
Conditions at: EHRD (ROTTERDAM AIRPOR, NL) observed 0155 UTC 16 June 2019
Temperature: 15.0°C (59°F)
Dewpoint: 12.0°C (54°F) [RH = 82%]
Pressure (altimeter): 30.00 inches Hg (1016.0 mb)
Winds: from the SSE (160 degrees) at 8 MPH (7 knots; 3.6 m/s)
Visibility: 6 or more miles (10+ km)
Ceiling: 4300 feet AGL
Clouds: overcast cloud deck at 4300 feet AGL
Weather: no significant weather observed at this time

METAR text: EHRD 160125Z AUTO 15006KT 9999 NCD 14/12 Q1016 NOSIG
Conditions at: EHRD (ROTTERDAM AIRPOR, NL) observed 0125 UTC 16 June 2019
Temperature: 14.0°C (57°F)
Dewpoint: 12.0°C (54°F) [RH = 88%]
Pressure (altimeter): 30.00 inches Hg (1016.0 mb)
Winds: from the SSE (150 degrees) at 7 MPH (6 knots; 3.1 m/s)
Visibility: 6 or more miles (10+ km)
Ceiling: at least 12,000 feet AGL
Clouds: sky clear below 12,000 feet AGL
Weather: no significant weather observed at this time

METAR text: EHRD 160055Z AUTO 16004KT 9999 NCD 14/12 Q1016 NOSIG
Conditions at: EHRD (ROTTERDAM AIRPOR, NL) observed 0055 UTC 16 June 2019
Temperature: 14.0°C (57°F)
Dewpoint: 12.0°C (54°F) [RH = 88%]
Pressure (altimeter): 30.00 inches Hg (1016.0 mb)
Winds: from the SSE (160 degrees) at 5 MPH (4 knots; 2.1 m/s)
Visibility: 6 or more miles (10+ km)
Ceiling: at least 12,000 feet AGL
Clouds: sky clear below 12,000 feet AGL
Weather: no significant weather observed at this time

METAR text: EHRD 160025Z AUTO 17004KT 9999 BKN040 OVC044 14/13 Q1017 NOSIG
Conditions at: EHRD (ROTTERDAM AIRPOR, NL) observed 0025 UTC 16 June 2019
Temperature: 14.0°C (57°F)
Dewpoint: 13.0°C (55°F) [RH = 94%]
Pressure (altimeter): 30.03 inches Hg (1017.0 mb)
Winds: from the S (170 degrees) at 5 MPH (4 knots; 2.1 m/s)
Visibility: 6 or more miles (10+ km)
Ceiling: 4000 feet AGL
Clouds: broken clouds at 4000 feet AGL
overcast cloud deck at 4400 feet AGL
Weather: no significant weather observed at this time

METAR text: EHRD 152355Z AUTO 15001KT 9999 SCT039 OVC043 12/11 Q1016 NOSIG
Conditions at: EHRD (ROTTERDAM AIRPOR, NL) observed 2355 UTC 15 June 2019
Temperature: 12.0°C (54°F)
Dewpoint: 11.0°C (52°F) [RH = 94%]
Pressure (altimeter): 30.00 inches Hg (1016.0 mb)
Winds: from the SSE (150 degrees) at 1 MPH (1 knots; 0.5 m/s)
Visibility: 6 or more miles (10+ km)
Ceiling: 4300 feet AGL
Clouds: scattered clouds at 3900 feet AGL
overcast cloud deck at 4300 feet AGL
Weather: no significant weather observed at this time

METAR text: EHRD 152325Z AUTO 15001KT 9999 BKN041 BKN049 12/11 Q1016 NOSIG
Conditions at: EHRD (ROTTERDAM AIRPOR, NL) observed 2325 UTC 15 June 2019
Temperature: 12.0°C (54°F)
Dewpoint: 11.0°C (52°F) [RH = 94%]
Pressure (altimeter): 30.00 inches Hg (1016.0 mb)
Winds: from the SSE (150 degrees) at 1 MPH (1 knots; 0.5 m/s)
Visibility: 6 or more miles (10+ km)
Ceiling: 4100 feet AGL
Clouds: broken clouds at 4100 feet AGL
broken clouds at 4900 feet AGL
Weather: no significant weather observed at this time

Forecast for: EHRD (ROTTERDAM AIRPOR, NL)
Text: TAF EHRD 170425Z 1706/1812 16004KT CAVOK
Forecast period: 0600 to 0700 UTC 17 June 2019
Forecast type: FROM: standard forecast or significant change
Winds: from the SSE (160 degrees) at 5 MPH (4 knots; 2.1 m/s)
Visibility: 6 or more miles 10+ km)
Ceiling: unknown
Clouds: missing
Weather: NSW  (no significant weather)
Text: BECMG 1707/1710 20010KT SCT035
Forecast period: 0700 to 1400 UTC 17 June 2019
Forecast type: BECOMING: Conditions expected to become as follows by 1000 UTC 17 June 2019
Winds: from the SSW (200 degrees) at 12 MPH (10 knots; 5.1 m/s)
Visibility: 6 or more miles 10+ km)
Ceiling: at least 12,000 feet AGL
Clouds: scattered clouds at 3500 feet AGL
Weather: NSW  (no significant weather)
Text: BECMG 1714/1717 31007KT
Forecast period: 1400 to 1800 UTC 17 June 2019
Forecast type: BECOMING: Conditions expected to become as follows by 1700 UTC 17 June 2019
Winds: from the NW (310 degrees) at 8 MPH (7 knots; 3.6 m/s)
Visibility: 6 or more miles 10+ km)
Ceiling: at least 12,000 feet AGL
Clouds: scattered clouds at 3500 feet AGL
Weather: NSW  (no significant weather)
Text: BECMG 1718/1721 VRB03KT CAVOK
Forecast period: 1800 UTC 17 June 2019 to 1200 UTC 18 June 2019
Forecast type: BECOMING: Conditions expected to become as follows by 2100 UTC 17 June 2019
Winds: variable direction winds at 3 MPH (3 knots; 1.5 m/s)
Visibility: 6 or more miles 10+ km)
Ceiling: unknown
Clouds: missing
Weather: NSW  (no significant weather)